createdAt,value
2022-08-22T00:00:31.782Z,99.99
2022-08-22T00:01:31.759Z,99.99
2022-08-22T00:02:31.778Z,99.99
2022-08-22T00:02:54.352Z,95.74
2022-08-22T00:02:56.262Z,95.19
2022-08-22T00:02:58.681Z,96.80
2022-08-22T00:03:00.126Z,93.23
2022-08-22T00:03:06.993Z,99.99
2022-08-22T00:03:10.107Z,99.10
2022-08-22T00:03:31.736Z,99.99
2022-08-22T00:04:34.502Z,99.99
2022-08-22T00:05:31.722Z,99.91
2022-08-22T00:06:31.711Z,99.99
2022-08-22T00:07:31.691Z,99.99
2022-08-22T00:08:31.687Z,99.99
2022-08-22T00:09:31.673Z,99.99
2022-08-22T00:10:31.692Z,99.99
2022-08-22T00:11:31.646Z,99.99
2022-08-22T00:12:31.643Z,99.99
2022-08-22T00:13:31.625Z,99.99
2022-08-22T00:14:31.620Z,99.99
2022-08-22T00:15:42.277Z,99.99
2022-08-22T00:16:32.631Z,99.99
2022-08-22T00:17:31.592Z,99.99
2022-08-22T00:18:31.572Z,99.99
2022-08-22T00:19:31.568Z,99.99
2022-08-22T00:20:31.548Z,99.99
2022-08-22T00:21:31.548Z,99.99
2022-08-22T00:22:31.538Z,99.99
2022-08-22T00:23:31.532Z,99.99
2022-08-22T00:24:31.503Z,99.99
2022-08-22T00:25:31.498Z,99.99
2022-08-22T00:26:31.510Z,99.99
2022-08-22T00:27:31.477Z,99.99
2022-08-22T00:28:31.477Z,99.99
2022-08-22T00:29:31.456Z,99.99
2022-08-22T00:30:31.433Z,99.99
2022-08-22T00:31:31.440Z,99.99
2022-08-22T00:32:31.425Z,99.99
2022-08-22T00:33:31.420Z,99.99
2022-08-22T00:34:31.408Z,99.99
2022-08-22T00:35:31.382Z,99.99
2022-08-22T00:36:31.374Z,99.99
2022-08-22T00:37:31.382Z,99.99
2022-08-22T00:38:31.372Z,99.99
2022-08-22T00:39:31.339Z,99.99
2022-08-22T00:40:31.336Z,99.99
2022-08-22T00:41:31.322Z,99.99
2022-08-22T00:42:32.287Z,99.99
2022-08-22T00:43:31.312Z,99.99
2022-08-22T00:44:31.295Z,99.99
2022-08-22T00:45:31.282Z,99.99
2022-08-22T00:46:31.281Z,99.99
2022-08-22T00:47:31.257Z,99.99
2022-08-22T00:48:31.253Z,99.99
2022-08-22T00:49:31.228Z,99.99
2022-08-22T00:50:31.226Z,99.99
2022-08-22T00:51:31.212Z,99.99
2022-08-22T00:52:31.210Z,99.99
2022-08-22T00:53:31.190Z,99.99
2022-08-22T00:54:31.191Z,99.99
2022-08-22T00:55:35.124Z,99.99
2022-08-22T00:56:31.149Z,99.99
2022-08-22T00:57:31.148Z,99.99
2022-08-22T00:58:31.136Z,99.99
2022-08-22T00:59:31.157Z,99.99
2022-08-22T01:00:31.114Z,99.99
2022-08-22T01:01:31.162Z,99.99
2022-08-22T01:02:31.081Z,99.99
2022-08-22T01:03:31.081Z,99.99
2022-08-22T01:04:31.062Z,99.99
2022-08-22T01:05:31.100Z,99.99
2022-08-22T01:06:31.042Z,99.99
2022-08-22T01:07:38.384Z,99.99
2022-08-22T01:08:32.021Z,99.99
2022-08-22T01:09:31.005Z,99.99
2022-08-22T01:10:31.015Z,99.99
2022-08-22T01:11:31.004Z,99.99
2022-08-22T01:12:30.987Z,99.99
2022-08-22T01:13:30.965Z,99.99
2022-08-22T01:14:34.593Z,99.99
2022-08-22T01:15:30.967Z,99.99
2022-08-22T01:16:30.939Z,99.99
2022-08-22T01:17:30.939Z,99.99
2022-08-22T01:18:30.916Z,99.99
2022-08-22T01:19:30.897Z,99.99
2022-08-22T01:20:30.894Z,99.99
2022-08-22T01:21:30.895Z,99.99
2022-08-22T01:22:30.863Z,99.99
2022-08-22T01:23:30.863Z,99.99
2022-08-22T01:24:30.850Z,99.99
2022-08-22T01:25:30.832Z,99.99
2022-08-22T01:26:30.820Z,99.99
2022-08-22T01:27:30.824Z,99.99
2022-08-22T01:28:30.799Z,99.99
2022-08-22T01:29:30.803Z,99.99
2022-08-22T01:30:30.778Z,99.99
2022-08-22T01:31:30.766Z,99.99
2022-08-22T01:32:30.764Z,99.99
2022-08-22T01:33:30.763Z,99.99
2022-08-22T01:34:30.744Z,99.99
2022-08-22T01:35:30.751Z,99.99
2022-08-22T01:36:30.716Z,99.99
2022-08-22T01:37:30.726Z,99.99
2022-08-22T01:38:30.701Z,99.99
2022-08-22T01:39:30.684Z,99.99
2022-08-22T01:40:30.677Z,99.99
2022-08-22T01:41:30.672Z,99.99
2022-08-22T01:42:30.648Z,99.99
2022-08-22T01:43:59.930Z,99.99
2022-08-22T01:44:31.625Z,99.99
2022-08-22T01:45:30.617Z,99.99
2022-08-22T01:46:30.606Z,99.99
2022-08-22T01:47:39.503Z,99.99
2022-08-22T01:48:38.216Z,99.99
2022-08-22T01:49:30.634Z,99.99
2022-08-22T01:50:38.224Z,99.99
2022-08-22T01:51:30.594Z,99.99
2022-08-22T01:52:30.586Z,99.99
2022-08-22T01:53:30.580Z,99.99
2022-08-22T01:54:30.579Z,99.99
2022-08-22T01:55:30.560Z,99.99
2022-08-22T01:56:30.545Z,99.99
2022-08-22T01:57:30.596Z,99.99
2022-08-22T01:58:30.484Z,99.99
2022-08-22T01:59:33.977Z,99.99
2022-08-22T02:00:34.730Z,99.99
2022-08-22T02:01:31.450Z,99.99
2022-08-22T02:02:30.434Z,99.99
2022-08-22T02:03:30.429Z,99.99
2022-08-22T02:04:30.413Z,99.99
2022-08-22T02:05:30.410Z,99.99
2022-08-22T02:06:30.401Z,99.99
2022-08-22T02:07:32.186Z,99.99
2022-08-22T02:08:30.387Z,99.99
2022-08-22T02:09:30.369Z,99.99
2022-08-22T02:10:30.347Z,99.99
2022-08-22T02:11:30.344Z,99.99
2022-08-22T02:12:30.336Z,99.99
2022-08-22T02:13:30.328Z,99.99
2022-08-22T02:14:30.317Z,99.99
2022-08-22T02:15:30.313Z,99.99
2022-08-22T02:16:30.292Z,99.99
2022-08-22T02:17:30.279Z,99.99
2022-08-22T02:18:30.267Z,99.99
2022-08-22T02:19:30.279Z,99.99
2022-08-22T02:20:30.271Z,99.99
2022-08-22T02:21:30.241Z,99.99
2022-08-22T02:22:30.227Z,99.99
2022-08-22T02:23:30.227Z,99.99
2022-08-22T02:24:30.216Z,99.99
2022-08-22T02:25:30.200Z,99.99
2022-08-22T02:26:30.198Z,99.99
2022-08-22T02:27:31.641Z,99.99
2022-08-22T02:28:30.171Z,99.99
2022-08-22T02:29:30.161Z,99.99
2022-08-22T02:30:30.148Z,99.99
2022-08-22T02:31:30.138Z,99.99
2022-08-22T02:32:30.154Z,99.99
2022-08-22T02:33:30.110Z,99.99
2022-08-22T02:34:30.119Z,99.99
2022-08-22T02:35:30.092Z,99.99
2022-08-22T02:36:30.087Z,99.99
2022-08-22T02:37:30.075Z,99.99
2022-08-22T02:38:30.091Z,99.99
2022-08-22T02:39:30.067Z,99.99
2022-08-22T02:40:30.047Z,99.99
2022-08-22T02:41:30.987Z,99.99
2022-08-22T02:42:30.021Z,99.99
2022-08-22T02:43:30.015Z,99.99
2022-08-22T02:44:30.008Z,99.99
2022-08-22T02:45:29.998Z,99.99
2022-08-22T02:46:29.983Z,99.99
2022-08-22T02:47:29.977Z,99.99
2022-08-22T02:48:29.961Z,99.99
2022-08-22T02:49:29.955Z,99.99
2022-08-22T02:50:29.958Z,99.99
2022-08-22T02:51:29.926Z,99.99
2022-08-22T02:52:29.914Z,99.99
2022-08-22T02:53:29.907Z,99.99
2022-08-22T02:54:29.915Z,99.99
2022-08-22T02:55:29.895Z,99.99
2022-08-22T02:56:29.890Z,99.99
2022-08-22T02:57:29.871Z,99.99
2022-08-22T02:58:29.871Z,99.99
2022-08-22T02:59:29.847Z,99.99
2022-08-22T03:00:31.869Z,99.99
2022-08-22T03:01:29.834Z,99.99
2022-08-22T03:02:29.836Z,99.99
2022-08-22T03:03:29.819Z,99.99
2022-08-22T03:04:29.793Z,99.99
2022-08-22T03:05:29.787Z,99.99
2022-08-22T03:06:29.772Z,99.99
2022-08-22T03:07:29.760Z,99.99
2022-08-22T03:08:29.771Z,99.99
2022-08-22T03:09:29.753Z,99.99
2022-08-22T03:10:29.741Z,99.99
2022-08-22T03:11:29.733Z,99.99
2022-08-22T03:12:29.723Z,99.99
2022-08-22T03:13:29.705Z,99.99
2022-08-22T03:14:29.713Z,99.99
2022-08-22T03:15:29.680Z,99.99
2022-08-22T03:16:29.680Z,99.99
2022-08-22T03:17:29.686Z,99.99
2022-08-22T03:18:29.658Z,99.99
2022-08-22T03:19:29.645Z,99.99
2022-08-22T03:20:29.650Z,99.99
2022-08-22T03:21:29.621Z,99.99
2022-08-22T03:22:29.613Z,99.99
2022-08-22T03:23:29.616Z,99.99
2022-08-22T03:24:29.598Z,99.99
2022-08-22T03:25:29.586Z,99.99
2022-08-22T03:26:29.608Z,99.99
2022-08-22T03:27:33.209Z,99.99
2022-08-22T03:28:29.562Z,99.99
2022-08-22T03:29:29.536Z,99.99
2022-08-22T03:30:29.525Z,99.99
2022-08-22T03:31:29.517Z,99.99
2022-08-22T03:32:29.519Z,99.99
2022-08-22T03:33:29.505Z,99.99
2022-08-22T03:34:29.514Z,99.99
2022-08-22T03:35:29.488Z,99.99
2022-08-22T03:36:29.472Z,99.99
2022-08-22T03:37:29.453Z,99.99
2022-08-22T03:38:29.466Z,99.99
2022-08-22T03:39:29.433Z,99.99
2022-08-22T03:40:31.847Z,99.99
2022-08-22T03:41:29.423Z,99.99
2022-08-22T03:42:29.412Z,99.99
2022-08-22T03:43:29.393Z,99.99
2022-08-22T03:44:29.409Z,99.99
2022-08-22T03:45:29.373Z,99.99
2022-08-22T03:46:29.367Z,99.99
2022-08-22T03:47:29.356Z,99.99
2022-08-22T03:48:29.345Z,99.99
2022-08-22T03:49:29.345Z,99.99
2022-08-22T03:50:29.325Z,99.99
2022-08-22T03:51:29.315Z,99.99
2022-08-22T03:52:29.308Z,99.99
2022-08-22T03:53:29.296Z,99.99
2022-08-22T03:54:30.582Z,99.99
2022-08-22T03:55:29.266Z,99.99
2022-08-22T03:56:29.268Z,99.99
2022-08-22T03:57:29.258Z,99.99
2022-08-22T03:58:29.236Z,99.99
2022-08-22T03:59:29.234Z,99.99
2022-08-22T04:00:29.330Z,99.99
2022-08-22T04:01:36.869Z,99.99
2022-08-22T04:02:42.373Z,99.99
2022-08-22T04:03:38.609Z,99.99
2022-08-22T04:04:36.825Z,99.99
2022-08-22T04:05:29.192Z,99.99
2022-08-22T04:06:29.199Z,99.99
2022-08-22T04:07:32.064Z,99.99
2022-08-22T04:08:29.150Z,99.99
2022-08-22T04:09:29.223Z,99.99
2022-08-22T04:10:29.154Z,99.99
2022-08-22T04:11:29.137Z,99.99
2022-08-22T04:12:29.102Z,99.99
2022-08-22T04:13:29.082Z,99.99
2022-08-22T04:14:29.077Z,99.99
2022-08-22T04:15:29.064Z,99.99
2022-08-22T04:16:29.058Z,99.99
2022-08-22T04:17:29.052Z,99.99
2022-08-22T04:18:29.033Z,99.99
2022-08-22T04:19:29.022Z,99.99
2022-08-22T04:20:29.012Z,99.99
2022-08-22T04:21:29.013Z,99.99
2022-08-22T04:22:29.000Z,99.99
2022-08-22T04:23:28.983Z,99.99
2022-08-22T04:24:28.964Z,99.99
2022-08-22T04:25:28.959Z,99.99
2022-08-22T04:26:28.950Z,99.99
2022-08-22T04:27:28.942Z,99.99
2022-08-22T04:28:28.936Z,99.99
2022-08-22T04:29:28.920Z,99.99
2022-08-22T04:30:28.903Z,99.99
2022-08-22T04:31:28.899Z,99.99
2022-08-22T04:32:28.890Z,99.99
2022-08-22T04:33:28.872Z,99.99
2022-08-22T04:34:28.878Z,99.99
2022-08-22T04:35:28.857Z,99.99
2022-08-22T04:36:28.838Z,99.99
2022-08-22T04:37:28.847Z,99.99
2022-08-22T04:38:28.826Z,99.99
2022-08-22T04:39:28.818Z,99.99
2022-08-22T04:40:28.808Z,99.99
2022-08-22T04:41:28.805Z,99.99
2022-08-22T04:42:32.584Z,99.99
2022-08-22T04:43:28.784Z,99.99
2022-08-22T04:44:28.763Z,99.99
2022-08-22T04:45:28.749Z,99.99
2022-08-22T04:46:33.736Z,99.99
2022-08-22T04:47:29.728Z,99.99
2022-08-22T04:48:28.721Z,99.99
2022-08-22T04:49:28.720Z,99.99
2022-08-22T04:50:28.696Z,99.99
2022-08-22T04:51:28.688Z,99.99
2022-08-22T04:52:29.510Z,99.99
2022-08-22T04:53:28.668Z,99.99
2022-08-22T04:54:28.651Z,99.99
2022-08-22T04:55:28.642Z,99.99
2022-08-22T04:56:28.636Z,99.99
2022-08-22T04:57:28.621Z,99.99
2022-08-22T04:58:28.610Z,99.99
2022-08-22T04:59:28.602Z,99.99
2022-08-22T05:00:28.590Z,99.99
2022-08-22T05:01:28.703Z,99.99
2022-08-22T05:02:28.560Z,99.99
2022-08-22T05:03:28.564Z,99.99
2022-08-22T05:04:28.545Z,99.99
2022-08-22T05:05:28.544Z,99.99
2022-08-22T05:06:28.520Z,99.99
2022-08-22T05:07:28.522Z,99.99
2022-08-22T05:08:29.495Z,99.99
2022-08-22T05:09:28.522Z,99.99
2022-08-22T05:10:28.486Z,99.99
2022-08-22T05:11:28.481Z,99.99
2022-08-22T05:12:29.187Z,99.99
2022-08-22T05:13:28.454Z,99.99
2022-08-22T05:14:28.435Z,99.99
2022-08-22T05:15:28.431Z,99.99
2022-08-22T05:16:28.413Z,99.99
2022-08-22T05:17:28.424Z,99.99
2022-08-22T05:18:29.565Z,99.99
2022-08-22T05:19:31.918Z,99.99
2022-08-22T05:20:28.395Z,99.99
2022-08-22T05:21:28.358Z,99.99
2022-08-22T05:22:28.346Z,99.99
2022-08-22T05:23:28.368Z,99.99
2022-08-22T05:24:28.340Z,99.99
2022-08-22T05:25:28.333Z,99.99
2022-08-22T05:26:28.307Z,99.99
2022-08-22T05:27:28.296Z,99.99
2022-08-22T05:28:28.285Z,99.99
2022-08-22T05:29:28.293Z,99.99
2022-08-22T05:30:28.267Z,99.99
2022-08-22T05:31:28.273Z,99.99
2022-08-22T05:32:28.263Z,99.99
2022-08-22T05:33:28.240Z,99.99
2022-08-22T05:34:28.224Z,99.99
2022-08-22T05:35:28.247Z,99.99
2022-08-22T05:36:28.220Z,99.99
2022-08-22T05:37:28.197Z,99.99
2022-08-22T05:38:28.187Z,99.99
2022-08-22T05:39:28.316Z,99.99
2022-08-22T05:40:28.169Z,99.72
2022-08-22T05:41:28.158Z,99.87
2022-08-22T05:42:28.148Z,99.27
2022-08-22T05:43:28.131Z,99.16
2022-08-22T05:44:28.125Z,98.76
2022-08-22T05:45:28.113Z,99.07
2022-08-22T05:46:28.109Z,98.25
2022-08-22T05:47:28.101Z,98.46
2022-08-22T05:48:28.072Z,98.36
2022-08-22T05:49:28.083Z,98.31
2022-08-22T05:50:28.057Z,98.11
2022-08-22T05:51:28.049Z,97.76
2022-08-22T05:52:28.148Z,97.80
2022-08-22T05:53:28.026Z,97.80
2022-08-22T05:54:34.505Z,97.80
2022-08-22T05:55:29.011Z,97.66
2022-08-22T05:56:27.997Z,97.56
2022-08-22T05:57:27.980Z,97.56
2022-08-22T05:58:27.974Z,96.75
2022-08-22T05:59:28.139Z,96.65
2022-08-22T06:00:27.959Z,96.45
2022-08-22T06:01:27.994Z,96.45
2022-08-22T06:02:27.933Z,95.94
2022-08-22T06:03:27.919Z,96.45
2022-08-22T06:04:27.913Z,96.34
2022-08-22T06:05:27.908Z,96.85
2022-08-22T06:06:27.887Z,96.30
2022-08-22T06:07:27.897Z,97.01
2022-08-22T06:08:27.869Z,96.56
2022-08-22T06:09:35.264Z,96.56
2022-08-22T06:10:28.918Z,96.25
2022-08-22T06:11:33.608Z,96.25
2022-08-22T06:12:28.839Z,96.01
2022-08-22T06:13:27.837Z,95.95
2022-08-22T06:14:27.808Z,96.01
2022-08-22T06:15:27.801Z,95.61
2022-08-22T06:16:27.779Z,95.50
2022-08-22T06:17:27.792Z,95.56
2022-08-22T06:18:27.760Z,95.36
2022-08-22T06:19:27.757Z,95.76
2022-08-22T06:20:28.653Z,95.00
2022-08-22T06:21:27.747Z,94.75
2022-08-22T06:22:27.716Z,94.65
2022-08-22T06:23:27.715Z,94.65
2022-08-22T06:24:27.700Z,94.25
2022-08-22T06:25:27.699Z,94.15
2022-08-22T06:26:27.678Z,94.91
2022-08-22T06:27:27.665Z,94.91
2022-08-22T06:28:35.298Z,94.20
2022-08-22T06:29:27.710Z,94.10
2022-08-22T06:30:27.848Z,94.40
2022-08-22T06:31:27.694Z,94.51
2022-08-22T06:32:44.538Z,94.10
2022-08-22T06:33:28.811Z,94.35
2022-08-22T06:34:27.601Z,94.20
2022-08-22T06:35:27.599Z,94.10
2022-08-22T06:36:27.587Z,93.80
2022-08-22T06:37:27.566Z,93.80
2022-08-22T06:38:27.566Z,93.90
2022-08-22T06:39:27.537Z,93.50
2022-08-22T06:40:27.612Z,93.05
2022-08-22T06:41:27.531Z,93.40
2022-08-22T06:42:27.514Z,93.30
2022-08-22T06:43:27.512Z,93.15
2022-08-22T06:44:27.485Z,93.35
2022-08-22T06:45:27.502Z,93.61
2022-08-22T06:46:27.465Z,93.11
2022-08-22T06:47:27.469Z,92.80
2022-08-22T06:48:27.448Z,93.21
2022-08-22T06:49:27.431Z,93.07
2022-08-22T06:50:27.451Z,93.07
2022-08-22T06:51:27.414Z,93.27
2022-08-22T06:52:27.410Z,93.07
2022-08-22T06:53:27.384Z,93.07
2022-08-22T06:54:30.355Z,92.76
2022-08-22T06:55:28.367Z,90.75
2022-08-22T06:56:27.367Z,91.15
2022-08-22T06:57:27.351Z,90.41
2022-08-22T06:58:30.940Z,90.00
2022-08-22T06:59:28.337Z,89.90
2022-08-22T07:00:27.318Z,89.96
2022-08-22T07:01:27.356Z,89.70
2022-08-22T07:02:27.309Z,88.70
2022-08-22T07:03:27.289Z,88.85
2022-08-22T07:04:27.284Z,88.75
2022-08-22T07:05:27.266Z,88.45
2022-08-22T07:06:27.264Z,88.95
2022-08-22T07:07:27.239Z,88.45
2022-08-22T07:08:27.246Z,88.45
2022-08-22T07:09:27.219Z,88.41
2022-08-22T07:10:27.207Z,86.80
2022-08-22T07:11:27.203Z,86.10
2022-08-22T07:12:27.195Z,86.50
2022-08-22T07:13:27.185Z,85.10
2022-08-22T07:14:27.189Z,85.80
2022-08-22T07:15:27.155Z,85.30
2022-08-22T07:16:27.148Z,85.25
2022-08-22T07:17:27.153Z,85.16
2022-08-22T07:18:27.130Z,85.36
2022-08-22T07:19:27.119Z,85.36
2022-08-22T07:20:27.126Z,84.31
2022-08-22T07:21:27.095Z,84.01
2022-08-22T07:22:27.098Z,83.11
2022-08-22T07:23:27.083Z,83.91
2022-08-22T07:24:27.072Z,83.91
2022-08-22T07:25:27.048Z,84.51
2022-08-22T07:26:27.057Z,84.61
2022-08-22T07:27:27.065Z,83.47
2022-08-22T07:28:36.819Z,83.67
2022-08-22T07:29:28.013Z,83.93
2022-08-22T07:30:27.983Z,84.83
2022-08-22T07:31:26.987Z,84.83
2022-08-22T07:32:26.998Z,83.73
2022-08-22T07:33:27.348Z,82.99
2022-08-22T07:34:26.957Z,83.09
2022-08-22T07:35:26.950Z,83.09
2022-08-22T07:36:31.482Z,83.89
2022-08-22T07:37:26.950Z,81.09
2022-08-22T07:38:26.994Z,81.79
2022-08-22T07:39:26.916Z,83.59
2022-08-22T07:40:26.937Z,83.49
2022-08-22T07:41:26.909Z,82.79
2022-08-22T07:42:30.163Z,85.30
2022-08-22T07:43:26.860Z,84.49
2022-08-22T07:44:26.868Z,83.59
2022-08-22T07:45:26.839Z,82.89
2022-08-22T07:46:26.838Z,82.89
2022-08-22T07:47:26.871Z,83.05
2022-08-22T07:48:26.813Z,83.75
2022-08-22T07:49:26.815Z,83.55
2022-08-22T07:50:26.813Z,83.55
2022-08-22T07:51:26.784Z,84.01
2022-08-22T07:52:26.765Z,84.01
2022-08-22T07:53:26.758Z,83.01
2022-08-22T07:54:27.188Z,82.91
2022-08-22T07:55:26.750Z,82.85
2022-08-22T07:56:26.745Z,83.75
2022-08-22T07:57:26.719Z,83.41
2022-08-22T07:58:26.712Z,83.61
2022-08-22T07:59:26.734Z,81.21
2022-08-22T08:00:26.685Z,81.11
2022-08-22T08:01:26.740Z,80.51
2022-08-22T08:02:26.687Z,80.11
2022-08-22T08:03:26.653Z,80.47
2022-08-22T08:04:26.649Z,80.17
2022-08-22T08:05:26.645Z,80.47
2022-08-22T08:06:26.620Z,80.07
2022-08-22T08:07:26.636Z,80.07
2022-08-22T08:08:26.632Z,79.13
2022-08-22T08:09:26.598Z,79.73
2022-08-22T08:10:26.588Z,79.73
2022-08-22T08:11:26.590Z,79.63
2022-08-22T08:12:26.570Z,78.63
2022-08-22T08:13:26.566Z,77.73
2022-08-22T08:14:26.550Z,77.73
2022-08-22T08:15:26.535Z,77.93
2022-08-22T08:16:26.518Z,78.33
2022-08-22T08:17:30.147Z,78.99
2022-08-22T08:18:27.495Z,79.73
2022-08-22T08:19:26.484Z,79.79
2022-08-22T08:20:26.495Z,79.23
2022-08-22T08:21:26.467Z,78.03
2022-08-22T08:22:26.471Z,78.29
2022-08-22T08:23:26.459Z,78.09
2022-08-22T08:24:26.434Z,77.95
2022-08-22T08:25:26.442Z,76.86
2022-08-22T08:26:26.425Z,77.06
2022-08-22T08:27:26.418Z,77.75
2022-08-22T08:28:26.407Z,77.66
2022-08-22T08:29:26.385Z,76.76
2022-08-22T08:30:26.375Z,75.26
2022-08-22T08:31:26.362Z,75.85
2022-08-22T08:32:26.377Z,75.52
2022-08-22T08:33:26.824Z,75.46
2022-08-22T08:34:26.328Z,75.65
2022-08-22T08:35:26.313Z,74.62
2022-08-22T08:36:26.307Z,73.56
2022-08-22T08:37:26.295Z,74.05
2022-08-22T08:38:26.314Z,74.72
2022-08-22T08:39:34.934Z,74.62
2022-08-22T08:40:27.260Z,74.72
2022-08-22T08:41:26.263Z,74.02
2022-08-22T08:42:26.237Z,74.12
2022-08-22T08:43:26.244Z,73.69
2022-08-22T08:44:26.232Z,72.59
2022-08-22T08:45:26.212Z,71.49
2022-08-22T08:46:26.200Z,72.69
2022-08-22T08:47:26.186Z,69.79
2022-08-22T08:48:26.183Z,70.36
2022-08-22T08:49:26.183Z,71.26
2022-08-22T08:50:26.170Z,70.92
2022-08-22T08:51:26.141Z,71.26
2022-08-22T08:52:26.136Z,69.13
2022-08-22T08:53:26.121Z,68.23
2022-08-22T08:54:26.129Z,68.43
2022-08-22T08:55:26.122Z,67.53
2022-08-22T08:56:26.108Z,67.83
2022-08-22T08:57:26.078Z,68.43
2022-08-22T08:58:26.076Z,68.03
2022-08-22T08:59:26.060Z,67.80
2022-08-22T09:00:30.401Z,67.10
2022-08-22T09:01:27.697Z,67.70
2022-08-22T09:02:26.033Z,67.66
2022-08-22T09:03:30.909Z,66.47
2022-08-22T09:04:26.012Z,65.08
2022-08-22T09:05:26.002Z,64.28
2022-08-22T09:06:26.003Z,64.67
2022-08-22T09:07:25.971Z,64.67
2022-08-22T09:08:27.727Z,64.04
2022-08-22T09:09:25.953Z,63.35
2022-08-22T09:10:27.395Z,62.26
2022-08-22T09:11:28.357Z,62.15
2022-08-22T09:12:25.928Z,63.85
2022-08-22T09:13:25.919Z,63.75
2022-08-22T09:14:26.229Z,64.04
2022-08-22T09:15:25.910Z,62.15
2022-08-22T09:16:25.879Z,61.66
2022-08-22T09:17:25.877Z,61.06
2022-08-22T09:18:25.859Z,62.26
2022-08-22T09:19:25.850Z,62.45
2022-08-22T09:20:25.849Z,61.85
2022-08-22T09:22:26.818Z,61.46
2022-08-22T09:23:26.819Z,60.46
2022-08-22T09:24:25.810Z,61.53
2022-08-22T09:25:25.786Z,60.80
2022-08-22T09:26:25.792Z,60.70
2022-08-22T09:27:25.787Z,61.60
2022-08-22T09:28:28.317Z,60.43
2022-08-22T09:29:28.937Z,61.63
2022-08-22T09:30:28.596Z,61.03
2022-08-22T09:31:44.947Z,60.73
2022-08-22T09:32:26.756Z,60.80
2022-08-22T09:33:28.268Z,61.93
2022-08-22T09:34:25.705Z,62.59
2022-08-22T09:35:25.694Z,62.40
2022-08-22T09:36:25.677Z,61.99
2022-08-22T09:37:25.670Z,60.70
2022-08-22T09:38:25.673Z,61.10
2022-08-22T09:39:25.648Z,60.90
2022-08-22T09:41:25.627Z,61.69
2022-08-22T09:42:25.614Z,61.60
2022-08-22T09:43:34.657Z,62.10
2022-08-22T09:44:25.627Z,61.80
2022-08-22T09:45:25.597Z,61.80
2022-08-22T09:46:31.502Z,62.16
2022-08-22T09:47:26.595Z,62.46
2022-08-22T09:48:26.667Z,63.16
2022-08-22T09:49:25.538Z,62.76
2022-08-22T09:50:25.546Z,61.07
2022-08-22T09:51:33.297Z,62.04
2022-08-22T09:52:30.016Z,62.53
2022-08-22T09:53:26.525Z,61.04
2022-08-22T09:54:31.141Z,63.03
2022-08-22T09:55:35.558Z,61.44
2022-08-22T09:56:26.480Z,60.14
2022-08-22T09:57:25.458Z,61.64
2022-08-22T09:58:25.444Z,60.38
2022-08-22T09:59:25.455Z,60.55
2022-08-22T10:00:25.740Z,60.84
2022-08-22T10:01:25.527Z,62.13
2022-08-22T10:02:26.415Z,61.83
2022-08-22T10:03:25.399Z,60.71
2022-08-22T10:04:25.378Z,60.31
2022-08-22T10:05:40.836Z,58.62
2022-08-22T10:06:26.355Z,59.82
2022-08-22T10:07:25.372Z,58.83
2022-08-22T10:08:26.425Z,58.62
2022-08-22T10:09:31.212Z,60.12
2022-08-22T10:10:26.364Z,57.93
2022-08-22T10:11:25.329Z,59.79
2022-08-22T10:12:25.302Z,59.39
2022-08-22T10:13:25.308Z,60.16
2022-08-22T10:14:25.288Z,59.36
2022-08-22T10:15:25.271Z,59.83
2022-08-22T10:16:25.265Z,62.71
2022-08-22T10:17:25.260Z,61.62
2022-08-22T10:18:26.091Z,61.02
2022-08-22T10:19:25.240Z,57.75
2022-08-22T10:20:25.215Z,57.75
2022-08-22T10:21:25.212Z,58.04
2022-08-22T10:22:30.383Z,59.34
2022-08-22T10:23:26.198Z,59.01
2022-08-22T10:24:25.974Z,61.96
2022-08-22T10:25:25.168Z,58.69
2022-08-22T10:26:25.780Z,56.70
2022-08-22T10:27:25.158Z,56.90
2022-08-22T10:28:25.136Z,56.93
2022-08-22T10:29:25.133Z,56.06
2022-08-22T10:30:25.116Z,56.16
2022-08-22T10:31:25.102Z,57.85
2022-08-22T10:32:26.941Z,58.54
2022-08-22T10:33:25.092Z,56.73
2022-08-22T10:34:25.073Z,56.56
2022-08-22T10:35:25.496Z,58.54
2022-08-22T10:36:26.092Z,57.38
2022-08-22T10:37:25.038Z,58.17
2022-08-22T10:38:25.352Z,58.74
2022-08-22T10:39:25.016Z,57.85
2022-08-22T10:40:25.055Z,58.15
2022-08-22T10:41:25.031Z,58.54
2022-08-22T10:42:24.985Z,57.35
2022-08-22T10:43:32.639Z,57.65
2022-08-22T10:44:24.985Z,56.56
2022-08-22T10:45:35.957Z,56.78
2022-08-22T10:46:33.719Z,57.08
2022-08-22T10:47:32.596Z,57.65
2022-08-22T10:48:32.616Z,58.54
2022-08-22T10:49:28.958Z,56.06
2022-08-22T10:50:24.959Z,56.85
2022-08-22T10:51:25.926Z,56.76
2022-08-22T10:52:24.901Z,55.24
2022-08-22T10:53:28.987Z,55.94
2022-08-22T10:54:24.870Z,57.82
2022-08-22T10:55:24.854Z,58.98
2022-08-22T10:56:24.851Z,58.98
2022-08-22T10:57:24.855Z,56.93
2022-08-22T10:58:24.825Z,57.82
2022-08-22T10:59:24.804Z,56.63
2022-08-22T11:00:25.609Z,56.70
2022-08-22T11:01:37.630Z,55.91
2022-08-22T11:02:25.801Z,55.71
2022-08-22T11:03:25.039Z,55.94
2022-08-22T11:04:28.241Z,55.83
2022-08-22T11:05:24.743Z,55.44
2022-08-22T11:06:24.750Z,56.43
2022-08-22T11:07:24.722Z,55.44
2022-08-22T11:08:24.734Z,56.51
2022-08-22T11:09:24.710Z,53.73
2022-08-22T11:10:24.700Z,54.72
2022-08-22T11:11:24.681Z,55.74
2022-08-22T11:12:28.252Z,55.24
2022-08-22T11:13:25.687Z,56.06
2022-08-22T11:14:24.663Z,55.57
2022-08-22T11:15:28.458Z,56.16
2022-08-22T11:16:25.631Z,55.69
2022-08-22T11:17:29.954Z,56.36
2022-08-22T11:18:25.615Z,56.76
2022-08-22T11:19:24.608Z,56.63
2022-08-22T11:20:24.613Z,56.63
2022-08-22T11:21:24.576Z,56.73
2022-08-22T11:22:24.565Z,57.03
2022-08-22T11:23:24.598Z,56.51
2022-08-22T11:24:34.582Z,56.60
2022-08-22T11:25:29.307Z,56.01
2022-08-22T11:26:33.510Z,58.26
2022-08-22T11:27:39.539Z,55.39
2022-08-22T11:28:25.515Z,55.49
2022-08-22T11:29:24.520Z,55.58
2022-08-22T11:30:25.849Z,55.26
2022-08-22T11:31:24.496Z,54.07
2022-08-22T11:32:24.489Z,53.28
2022-08-22T11:33:32.463Z,55.06
2022-08-22T11:34:25.628Z,54.57
2022-08-22T11:35:24.447Z,54.07
2022-08-22T11:36:27.243Z,53.58
2022-08-22T11:37:42.177Z,55.16
2022-08-22T11:38:30.519Z,56.35
2022-08-22T11:39:25.397Z,52.69
2022-08-22T11:40:24.471Z,52.04
2022-08-22T11:41:24.380Z,52.47
2022-08-22T11:42:24.365Z,53.36
2022-08-22T11:43:25.374Z,53.45
2022-08-22T11:44:25.513Z,54.72
2022-08-22T11:45:24.332Z,57.57
2022-08-22T11:46:24.320Z,56.05
2022-08-22T11:47:28.163Z,55.85
2022-08-22T11:48:24.367Z,53.67
2022-08-22T11:49:25.655Z,53.97
2022-08-22T11:50:24.280Z,56.02
2022-08-22T11:51:25.040Z,53.55
2022-08-22T11:52:24.276Z,53.55
2022-08-22T11:53:24.257Z,53.35
2022-08-22T11:54:31.037Z,51.97
2022-08-22T11:55:28.480Z,53.58
2022-08-22T11:56:25.244Z,51.42
2022-08-22T11:57:24.234Z,52.54
2022-08-22T11:58:25.289Z,53.33
2022-08-22T11:59:25.208Z,52.61
2022-08-22T12:00:24.191Z,50.46
2022-08-22T12:01:24.169Z,50.06
2022-08-22T12:02:24.186Z,47.98
2022-08-22T12:03:24.167Z,49.96
2022-08-22T12:04:24.156Z,49.34
2022-08-22T12:05:26.241Z,49.84
2022-08-22T12:06:24.164Z,49.94
2022-08-22T12:07:24.114Z,49.74
2022-08-22T12:08:24.111Z,50.36
2022-08-22T12:09:24.115Z,49.54
2022-08-22T12:10:24.085Z,49.94
2022-08-22T12:11:24.072Z,49.84
2022-08-22T12:12:24.072Z,51.62
2022-08-22T12:13:34.901Z,50.83
2022-08-22T12:14:26.973Z,50.71
2022-08-22T12:15:24.488Z,50.31
2022-08-22T12:16:24.019Z,51.52
2022-08-22T12:17:56.053Z,51.94
2022-08-22T12:18:25.129Z,51.25
2022-08-22T12:19:23.998Z,49.57
2022-08-22T12:20:23.984Z,51.65
2022-08-22T12:21:23.994Z,50.28
2022-08-22T12:22:23.953Z,51.37
2022-08-22T12:23:23.957Z,50.88
2022-08-22T12:24:24.939Z,52.47
2022-08-22T12:25:23.930Z,52.07
2022-08-22T12:26:23.931Z,52.76
2022-08-22T12:27:28.886Z,53.23
2022-08-22T12:28:24.936Z,52.94
2022-08-22T12:29:33.525Z,49.66
2022-08-22T12:30:24.886Z,49.66
2022-08-22T12:31:23.865Z,49.96
2022-08-22T12:32:27.579Z,51.35
2022-08-22T12:33:23.884Z,51.65
2022-08-22T12:34:23.855Z,51.45
2022-08-22T12:35:29.944Z,52.44
2022-08-22T12:36:24.816Z,52.51
2022-08-22T12:37:23.809Z,52.02
2022-08-22T12:38:29.228Z,52.02
2022-08-22T12:39:24.857Z,50.73
2022-08-22T12:40:26.349Z,50.26
2022-08-22T12:41:27.752Z,51.05
2022-08-22T12:42:23.751Z,51.05
2022-08-22T12:43:23.744Z,50.65
2022-08-22T12:44:23.745Z,49.34
2022-08-22T12:45:23.775Z,48.85
2022-08-22T12:46:23.720Z,49.94
2022-08-22T12:47:23.711Z,48.25
2022-08-22T12:48:23.696Z,50.13